»·PEaware :: SKY5 KABQ-KSKX

SKY5 :: KABQ-KSKX

FLIGHT INFORMATION

Flight Status: Arrived
Operator:
Skymark Airlines
More flights by this operator :: More flights under this callsign
Pilot: Utku A. (15598)
Aircraft: Unknown
(DA62)
More flights by this aircraft type
Origin: KABQ Albuquerque Intl Sunport
United States
Destination: KSKX Taos Regl
United States
More flights between these airports :: More routes between these airports
Route: +ABQ V263 SAF V83 TAS
File this flight plan on PilotEdge
Remarks: SKYHIGH CHARTERS MISSION#2 LEG1
Altitude:
(Current/Filed)
11,000ft
Speed:
(Current/Filed)
190kts
Departed: 14-Oct-18 03:38 PM
Arrived: 14-Oct-18 04:35 PM
Distance/Time
Traveled:
97nm/0:57
Distance/Time
To Go:
Arrived

Flight Plot

Page will automatically refresh every two minutes.

Flight plan parsing failed; only flown route is shown


Map Options




Map Legend


Flown Route
Filed Route
Departure Airport
Arrival Airport
Navaid (VOR, NDB)
Fix

Horizontal Profiles

Position Reports

Time Latitude Longitude Heading Altitude Ground
Speed
14-Oct-18 15:30 35.035691 -106.619185 137 5307ft 0kts
14-Oct-18 15:31 35.035691 -106.619185 137 5307ft 0kts
14-Oct-18 15:32 35.035691 -106.619185 137 5307ft 0kts
14-Oct-18 15:33 35.035220 -106.619028 167 5308ft 7kts
14-Oct-18 15:34 35.031979 -106.621005 225 5309ft 23kts
14-Oct-18 15:35 35.028856 -106.624755 224 5309ft 11kts
14-Oct-18 15:36 35.025407 -106.628932 223 5297ft 22kts
14-Oct-18 15:37 35.024025 -106.631018 211 5286ft 0kts
14-Oct-18 15:38 35.024025 -106.631019 211 5286ft 0kts
14-Oct-18 15:39 35.022786 -106.631011 134 5287ft 9kts
14-Oct-18 15:40 35.029639 -106.621683 44 5327ft 93kts
14-Oct-18 15:41 35.051401 -106.604779 338 6062ft 109kts
14-Oct-18 15:42 35.077488 -106.633831 318 7266ft 110kts
14-Oct-18 15:43 35.100156 -106.661056 318 8018ft 131kts
14-Oct-18 15:44 35.124107 -106.687926 321 8515ft 140kts
14-Oct-18 15:45 35.154143 -106.719005 320 9199ft 143kts
14-Oct-18 15:46 35.184342 -106.749843 351 9905ft 138kts
14-Oct-18 15:47 35.218988 -106.741921 19 10529ft 136kts
14-Oct-18 15:48 35.256154 -106.725570 19 10907ft 156kts
14-Oct-18 15:49 35.299465 -106.706715 19 10911ft 170kts
14-Oct-18 15:50 35.344226 -106.687300 19 10997ft 171kts
14-Oct-18 15:51 35.389421 -106.667695 18 11000ft 174kts
14-Oct-18 15:52 35.427339 -106.651208 18 10999ft 174kts
14-Oct-18 15:53 35.473054 -106.631375 19 11000ft 174kts
14-Oct-18 15:54 35.515109 -106.605159 59 11004ft 175kts
14-Oct-18 15:55 35.528445 -106.548725 85 11000ft 178kts
14-Oct-18 15:56 35.530485 -106.487796 84 10999ft 178kts
14-Oct-18 15:57 35.532189 -106.426913 85 10999ft 178kts
14-Oct-18 15:58 35.533811 -106.365828 85 10999ft 178kts
14-Oct-18 15:59 35.535148 -106.305311 86 10998ft 179kts
14-Oct-18 16:00 35.536523 -106.244375 86 10999ft 179kts
14-Oct-18 16:01 35.537949 -106.183231 86 10999ft 179kts
14-Oct-18 16:02 35.539398 -106.122137 85 10999ft 179kts
14-Oct-18 16:03 35.544956 -106.062803 42 11004ft 174kts
14-Oct-18 16:04 35.581824 -106.053679 6 11000ft 175kts
14-Oct-18 16:05 35.618828 -106.049480 4 11001ft 178kts
14-Oct-18 16:06 35.659912 -106.045071 4 10999ft 178kts
14-Oct-18 16:07 35.717562 -106.038932 4 10999ft 178kts
14-Oct-18 16:08 35.758692 -106.033100 6 10999ft 178kts
14-Oct-18 16:09 35.808008 -106.025833 6 10999ft 178kts
14-Oct-18 16:10 35.857234 -106.018568 6 10999ft 178kts
14-Oct-18 16:11 35.906380 -106.011307 6 10999ft 178kts
14-Oct-18 16:12 35.955614 -106.004014 6 10999ft 178kts
14-Oct-18 16:13 36.004910 -105.996702 6 10999ft 178kts
14-Oct-18 16:14 36.054332 -105.989369 6 10999ft 178kts
14-Oct-18 16:15 36.101472 -105.982392 6 11284ft 167kts
14-Oct-18 16:16 36.145628 -105.975836 6 11789ft 161kts
14-Oct-18 16:17 36.190842 -105.969107 6 12002ft 171kts
14-Oct-18 16:18 36.239370 -105.962237 6 12000ft 178kts
14-Oct-18 16:19 36.288999 -105.955223 6 11999ft 180kts
14-Oct-18 16:20 36.338657 -105.948203 6 11999ft 180kts
14-Oct-18 16:21 36.388456 -105.941156 6 11999ft 180kts
14-Oct-18 16:22 36.438133 -105.933462 8 11999ft 180kts
14-Oct-18 16:23 36.487718 -105.924891 6 11999ft 180kts
14-Oct-18 16:24 36.542336 -105.916528 6 11999ft 161kts
14-Oct-18 16:25 36.576123 -105.911557 6 11999ft 161kts
14-Oct-18 16:26 36.620183 -105.910511 322 11936ft 164kts
14-Oct-18 16:27 36.641148 -105.955665 314 12024ft 152kts
14-Oct-18 16:28 36.639450 -105.995989 184 11965ft 150kts
14-Oct-18 16:29 36.632338 -105.956031 68 11955ft 144kts
14-Oct-18 16:30 36.614671 -105.914732 127 12023ft 140kts
14-Oct-18 16:31 36.588435 -105.874658 128 11292ft 161kts
14-Oct-18 16:32 36.560442 -105.832033 125 10494ft 160kts
14-Oct-18 16:33 36.533223 -105.789579 127 9967ft 154kts
14-Oct-18 16:34 36.506502 -105.746592 128 9484ft 161kts
14-Oct-18 16:35 36.476809 -105.705277 131 8506ft 155kts
14-Oct-18 16:36 36.471977 -105.659771 73 7524ft 111kts
14-Oct-18 16:37 36.459328 -105.670259 235 7072ft 39kts
14-Oct-18 16:38 36.458794 -105.672829 56 7066ft 10kts
14-Oct-18 16:39 36.460466 -105.670764 322 7071ft 2kts
14-Oct-18 16:40 36.460697 -105.670643 54 7071ft 0kts
14-Oct-18 16:41 36.460697 -105.670643 54 7071ft 0kts
14-Oct-18 16:42 36.460697 -105.670643 54 7071ft 0kts
14-Oct-18 16:43 36.460697 -105.670643 54 7071ft 0kts
14-Oct-18 16:44 36.460697 -105.670643 54 7071ft 0kts
14-Oct-18 16:45 36.460697 -105.670643 54 7071ft 0kts

Navigation Log

Ident Type
Flight plan parsing failed, navigation log unavailable